sensor_id;sensor_type;location;lat;lon;timestamp;P1;durP1;ratioP1;P2;durP2;ratioP2
10633;SDS011;5365;51.640;8.106;2023-04-15T00:02:13;211.30;;;78.07;;
10633;SDS011;5365;51.640;8.106;2023-04-15T00:05:14;211.07;;;79.00;;
10633;SDS011;5365;51.640;8.106;2023-04-15T00:08:14;213.07;;;80.43;;
10633;SDS011;5365;51.640;8.106;2023-04-15T00:11:15;213.57;;;80.33;;
10633;SDS011;5365;51.640;8.106;2023-04-15T00:14:15;212.60;;;84.47;;
10633;SDS011;5365;51.640;8.106;2023-04-15T00:17:16;209.87;;;79.30;;
10633;SDS011;5365;51.640;8.106;2023-04-15T00:20:17;208.57;;;78.70;;
10633;SDS011;5365;51.640;8.106;2023-04-15T00:23:17;213.93;;;82.17;;
10633;SDS011;5365;51.640;8.106;2023-04-15T00:26:18;211.40;;;77.73;;
10633;SDS011;5365;51.640;8.106;2023-04-15T00:29:18;212.20;;;79.40;;
10633;SDS011;5365;51.640;8.106;2023-04-15T00:32:18;210.30;;;74.57;;
10633;SDS011;5365;51.640;8.106;2023-04-15T00:35:19;211.50;;;75.93;;
10633;SDS011;5365;51.640;8.106;2023-04-15T00:38:19;212.60;;;80.17;;
10633;SDS011;5365;51.640;8.106;2023-04-15T00:41:20;211.93;;;77.63;;
10633;SDS011;5365;51.640;8.106;2023-04-15T00:44:20;213.20;;;84.33;;
10633;SDS011;5365;51.640;8.106;2023-04-15T00:47:20;206.37;;;80.20;;
10633;SDS011;5365;51.640;8.106;2023-04-15T00:50:21;205.13;;;79.20;;
10633;SDS011;5365;51.640;8.106;2023-04-15T00:53:21;204.53;;;78.40;;
10633;SDS011;5365;51.640;8.106;2023-04-15T00:56:21;203.33;;;77.57;;
10633;SDS011;5365;51.640;8.106;2023-04-15T00:59:23;204.53;;;84.00;;
10633;SDS011;5365;51.640;8.106;2023-04-15T01:02:23;205.53;;;81.73;;
10633;SDS011;5365;51.640;8.106;2023-04-15T01:05:23;204.23;;;78.87;;
10633;SDS011;5365;51.640;8.106;2023-04-15T01:08:27;204.33;;;78.07;;
10633;SDS011;5365;51.640;8.106;2023-04-15T01:11:27;207.07;;;82.33;;
10633;SDS011;5365;51.640;8.106;2023-04-15T01:14:28;202.13;;;74.20;;
10633;SDS011;5365;51.640;8.106;2023-04-15T01:17:28;204.77;;;77.63;;
10633;SDS011;5365;51.640;8.106;2023-04-15T01:20:28;203.27;;;71.60;;
10633;SDS011;5365;51.640;8.106;2023-04-15T01:23:29;204.60;;;76.33;;
10633;SDS011;5365;51.640;8.106;2023-04-15T01:26:29;204.37;;;73.63;;
10633;SDS011;5365;51.640;8.106;2023-04-15T01:29:31;208.70;;;77.53;;
10633;SDS011;5365;51.640;8.106;2023-04-15T01:32:31;204.20;;;74.60;;
10633;SDS011;5365;51.640;8.106;2023-04-15T01:35:32;207.13;;;71.77;;
10633;SDS011;5365;51.640;8.106;2023-04-15T01:38:32;200.20;;;70.53;;
10633;SDS011;5365;51.640;8.106;2023-04-15T01:41:32;205.10;;;69.40;;
10633;SDS011;5365;51.640;8.106;2023-04-15T01:44:32;200.77;;;71.97;;
10633;SDS011;5365;51.640;8.106;2023-04-15T01:47:33;203.80;;;70.07;;
10633;SDS011;5365;51.640;8.106;2023-04-15T01:50:33;206.07;;;75.30;;
10633;SDS011;5365;51.640;8.106;2023-04-15T01:53:35;205.57;;;74.43;;
10633;SDS011;5365;51.640;8.106;2023-04-15T01:56:36;203.07;;;72.93;;
10633;SDS011;5365;51.640;8.106;2023-04-15T01:59:36;205.18;;;73.97;;
10633;SDS011;5365;51.640;8.106;2023-04-15T02:02:37;204.00;;;72.17;;
10633;SDS011;5365;51.640;8.106;2023-04-15T02:05:37;204.53;;;77.07;;
10633;SDS011;5365;51.640;8.106;2023-04-15T02:08:38;204.30;;;77.07;;
10633;SDS011;5365;51.640;8.106;2023-04-15T02:11:38;200.80;;;73.27;;
10633;SDS011;5365;51.640;8.106;2023-04-15T02:14:38;204.97;;;73.53;;
10633;SDS011;5365;51.640;8.106;2023-04-15T02:17:38;201.23;;;74.77;;
10633;SDS011;5365;51.640;8.106;2023-04-15T02:20:38;208.70;;;78.15;;
10633;SDS011;5365;51.640;8.106;2023-04-15T02:23:39;203.50;;;76.00;;
10633;SDS011;5365;51.640;8.106;2023-04-15T02:26:39;203.40;;;77.70;;
10633;SDS011;5365;51.640;8.106;2023-04-15T02:29:40;206.35;;;79.97;;
10633;SDS011;5365;51.640;8.106;2023-04-15T02:32:40;203.47;;;77.93;;
10633;SDS011;5365;51.640;8.106;2023-04-15T02:35:43;204.27;;;80.23;;
10633;SDS011;5365;51.640;8.106;2023-04-15T02:38:44;210.07;;;83.87;;
10633;SDS011;5365;51.640;8.106;2023-04-15T02:41:45;204.43;;;78.00;;
10633;SDS011;5365;51.640;8.106;2023-04-15T02:44:50;202.10;;;78.90;;
10633;SDS011;5365;51.640;8.106;2023-04-15T02:47:50;202.20;;;78.28;;
10633;SDS011;5365;51.640;8.106;2023-04-15T02:50:51;201.83;;;74.80;;
10633;SDS011;5365;51.640;8.106;2023-04-15T02:53:51;202.93;;;74.47;;
10633;SDS011;5365;51.640;8.106;2023-04-15T02:56:51;203.93;;;73.70;;
10633;SDS011;5365;51.640;8.106;2023-04-15T02:59:54;206.27;;;76.17;;
10633;SDS011;5365;51.640;8.106;2023-04-15T03:03:01;206.57;;;77.10;;
10633;SDS011;5365;51.640;8.106;2023-04-15T03:06:02;204.30;;;76.70;;
10633;SDS011;5365;51.640;8.106;2023-04-15T03:09:02;200.40;;;75.40;;
10633;SDS011;5365;51.640;8.106;2023-04-15T03:12:02;198.60;;;72.27;;
10633;SDS011;5365;51.640;8.106;2023-04-15T03:15:03;204.30;;;76.67;;
10633;SDS011;5365;51.640;8.106;2023-04-15T03:18:03;200.80;;;69.87;;
10633;SDS011;5365;51.640;8.106;2023-04-15T03:21:03;201.83;;;74.13;;
10633;SDS011;5365;51.640;8.106;2023-04-15T03:24:03;206.07;;;79.27;;
10633;SDS011;5365;51.640;8.106;2023-04-15T03:27:03;202.20;;;77.63;;
10633;SDS011;5365;51.640;8.106;2023-04-15T03:30:07;201.07;;;76.00;;
10633;SDS011;5365;51.640;8.106;2023-04-15T03:33:07;202.50;;;72.87;;
10633;SDS011;5365;51.640;8.106;2023-04-15T03:36:08;202.83;;;75.20;;
10633;SDS011;5365;51.640;8.106;2023-04-15T03:39:08;202.63;;;78.93;;
10633;SDS011;5365;51.640;8.106;2023-04-15T03:42:08;198.47;;;72.83;;
10633;SDS011;5365;51.640;8.106;2023-04-15T03:45:08;201.07;;;75.13;;
10633;SDS011;5365;51.640;8.106;2023-04-15T03:48:09;207.30;;;80.87;;
10633;SDS011;5365;51.640;8.106;2023-04-15T03:51:09;201.23;;;78.47;;
10633;SDS011;5365;51.640;8.106;2023-04-15T03:54:09;200.53;;;70.87;;
10633;SDS011;5365;51.640;8.106;2023-04-15T03:57:10;204.07;;;72.63;;
10633;SDS011;5365;51.640;8.106;2023-04-15T04:00:11;200.57;;;73.60;;
10633;SDS011;5365;51.640;8.106;2023-04-15T04:03:11;201.70;;;76.03;;
10633;SDS011;5365;51.640;8.106;2023-04-15T04:06:11;198.70;;;69.83;;
10633;SDS011;5365;51.640;8.106;2023-04-15T04:09:11;206.10;;;78.93;;
10633;SDS011;5365;51.640;8.106;2023-04-15T04:12:12;207.10;;;76.27;;
10633;SDS011;5365;51.640;8.106;2023-04-15T04:15:12;203.93;;;75.20;;
10633;SDS011;5365;51.640;8.106;2023-04-15T04:18:12;206.40;;;74.57;;
10633;SDS011;5365;51.640;8.106;2023-04-15T04:21:13;204.73;;;75.73;;
10633;SDS011;5365;51.640;8.106;2023-04-15T04:24:13;207.77;;;79.43;;
10633;SDS011;5365;51.640;8.106;2023-04-15T04:27:13;208.83;;;71.73;;
10633;SDS011;5365;51.640;8.106;2023-04-15T04:30:13;205.90;;;75.25;;
10633;SDS011;5365;51.640;8.106;2023-04-15T04:33:13;210.23;;;80.57;;
10633;SDS011;5365;51.640;8.106;2023-04-15T04:36:14;207.03;;;77.60;;
10633;SDS011;5365;51.640;8.106;2023-04-15T04:39:14;207.20;;;78.67;;
10633;SDS011;5365;51.640;8.106;2023-04-15T04:42:15;206.37;;;78.67;;
10633;SDS011;5365;51.640;8.106;2023-04-15T04:45:15;209.13;;;84.43;;
10633;SDS011;5365;51.640;8.106;2023-04-15T04:48:15;207.60;;;76.07;;
10633;SDS011;5365;51.640;8.106;2023-04-15T04:51:16;209.17;;;80.83;;
10633;SDS011;5365;51.640;8.106;2023-04-15T04:54:16;208.60;;;80.33;;
10633;SDS011;5365;51.640;8.106;2023-04-15T04:57:17;208.27;;;82.80;;
10633;SDS011;5365;51.640;8.106;2023-04-15T05:00:17;211.40;;;81.80;;
10633;SDS011;5365;51.640;8.106;2023-04-15T05:03:18;208.70;;;76.80;;
10633;SDS011;5365;51.640;8.106;2023-04-15T05:06:18;207.27;;;81.83;;
10633;SDS011;5365;51.640;8.106;2023-04-15T05:09:18;210.90;;;82.00;;
10633;SDS011;5365;51.640;8.106;2023-04-15T05:12:18;210.10;;;81.50;;
10633;SDS011;5365;51.640;8.106;2023-04-15T05:15:18;204.20;;;77.50;;
10633;SDS011;5365;51.640;8.106;2023-04-15T05:18:19;210.10;;;76.17;;
10633;SDS011;5365;51.640;8.106;2023-04-15T05:21:19;207.43;;;80.63;;
10633;SDS011;5365;51.640;8.106;2023-04-15T05:24:19;209.53;;;79.80;;
10633;SDS011;5365;51.640;8.106;2023-04-15T05:27:20;207.63;;;79.03;;
10633;SDS011;5365;51.640;8.106;2023-04-15T05:30:21;201.03;;;74.60;;
10633;SDS011;5365;51.640;8.106;2023-04-15T05:33:21;211.25;;;79.40;;
10633;SDS011;5365;51.640;8.106;2023-04-15T05:36:22;206.53;;;80.17;;
10633;SDS011;5365;51.640;8.106;2023-04-15T05:39:22;209.63;;;82.27;;
10633;SDS011;5365;51.640;8.106;2023-04-15T05:42:22;211.67;;;83.70;;
10633;SDS011;5365;51.640;8.106;2023-04-15T05:45:22;212.70;;;83.33;;
10633;SDS011;5365;51.640;8.106;2023-04-15T05:48:23;209.57;;;81.47;;
10633;SDS011;5365;51.640;8.106;2023-04-15T05:51:23;201.43;;;76.43;;
10633;SDS011;5365;51.640;8.106;2023-04-15T05:54:23;202.33;;;78.03;;
10633;SDS011;5365;51.640;8.106;2023-04-15T05:57:23;199.17;;;76.20;;
10633;SDS011;5365;51.640;8.106;2023-04-15T06:00:24;204.83;;;83.10;;
10633;SDS011;5365;51.640;8.106;2023-04-15T06:03:24;204.13;;;84.73;;
10633;SDS011;5365;51.640;8.106;2023-04-15T06:06:24;201.73;;;81.17;;
10633;SDS011;5365;51.640;8.106;2023-04-15T06:09:26;204.30;;;81.73;;
10633;SDS011;5365;51.640;8.106;2023-04-15T06:12:27;205.10;;;78.10;;
10633;SDS011;5365;51.640;8.106;2023-04-15T06:15:28;208.67;;;81.97;;
10633;SDS011;5365;51.640;8.106;2023-04-15T06:18:28;201.33;;;79.57;;
10633;SDS011;5365;51.640;8.106;2023-04-15T06:21:28;190.23;;;68.80;;
10633;SDS011;5365;51.640;8.106;2023-04-15T06:24:28;201.27;;;73.00;;
10633;SDS011;5365;51.640;8.106;2023-04-15T06:27:29;212.00;;;80.50;;
10633;SDS011;5365;51.640;8.106;2023-04-15T06:30:29;205.10;;;81.03;;
10633;SDS011;5365;51.640;8.106;2023-04-15T06:33:30;199.37;;;78.47;;
10633;SDS011;5365;51.640;8.106;2023-04-15T06:36:30;204.27;;;83.70;;
10633;SDS011;5365;51.640;8.106;2023-04-15T06:39:31;195.97;;;74.40;;
10633;SDS011;5365;51.640;8.106;2023-04-15T06:42:31;204.63;;;79.37;;
10633;SDS011;5365;51.640;8.106;2023-04-15T06:45:32;193.60;;;72.23;;
10633;SDS011;5365;51.640;8.106;2023-04-15T06:48:32;204.93;;;74.47;;
10633;SDS011;5365;51.640;8.106;2023-04-15T06:51:33;195.97;;;75.97;;
10633;SDS011;5365;51.640;8.106;2023-04-15T06:54:33;202.67;;;74.80;;
10633;SDS011;5365;51.640;8.106;2023-04-15T06:57:33;204.07;;;75.90;;
10633;SDS011;5365;51.640;8.106;2023-04-15T07:00:33;206.10;;;80.57;;
10633;SDS011;5365;51.640;8.106;2023-04-15T07:03:34;201.73;;;77.70;;
10633;SDS011;5365;51.640;8.106;2023-04-15T07:06:34;204.17;;;77.67;;
10633;SDS011;5365;51.640;8.106;2023-04-15T07:09:35;206.00;;;76.90;;
10633;SDS011;5365;51.640;8.106;2023-04-15T07:12:35;205.37;;;76.40;;
10633;SDS011;5365;51.640;8.106;2023-04-15T07:15:35;196.03;;;72.10;;
10633;SDS011;5365;51.640;8.106;2023-04-15T07:18:35;196.27;;;69.53;;
10633;SDS011;5365;51.640;8.106;2023-04-15T07:21:36;194.70;;;68.10;;
10633;SDS011;5365;51.640;8.106;2023-04-15T07:24:36;199.53;;;73.30;;
10633;SDS011;5365;51.640;8.106;2023-04-15T07:27:36;199.23;;;73.70;;
10633;SDS011;5365;51.640;8.106;2023-04-15T07:30:37;200.40;;;72.83;;
10633;SDS011;5365;51.640;8.106;2023-04-15T07:33:37;199.40;;;70.47;;
10633;SDS011;5365;51.640;8.106;2023-04-15T07:36:37;199.63;;;72.90;;
10633;SDS011;5365;51.640;8.106;2023-04-15T07:39:37;206.20;;;74.33;;
10633;SDS011;5365;51.640;8.106;2023-04-15T07:42:38;198.33;;;75.27;;
10633;SDS011;5365;51.640;8.106;2023-04-15T07:45:38;198.73;;;77.63;;
10633;SDS011;5365;51.640;8.106;2023-04-15T07:48:39;194.63;;;72.83;;
10633;SDS011;5365;51.640;8.106;2023-04-15T07:51:39;214.93;;;81.40;;
10633;SDS011;5365;51.640;8.106;2023-04-15T07:54:39;199.63;;;73.93;;
10633;SDS011;5365;51.640;8.106;2023-04-15T07:57:40;200.63;;;79.37;;
10633;SDS011;5365;51.640;8.106;2023-04-15T08:00:40;200.17;;;80.73;;
10633;SDS011;5365;51.640;8.106;2023-04-15T08:03:41;199.73;;;76.87;;
10633;SDS011;5365;51.640;8.106;2023-04-15T08:06:41;195.83;;;72.97;;
10633;SDS011;5365;51.640;8.106;2023-04-15T08:09:42;206.00;;;78.33;;
10633;SDS011;5365;51.640;8.106;2023-04-15T08:12:42;203.63;;;76.97;;
10633;SDS011;5365;51.640;8.106;2023-04-15T08:15:42;199.60;;;71.90;;
10633;SDS011;5365;51.640;8.106;2023-04-15T08:18:43;198.83;;;75.23;;
10633;SDS011;5365;51.640;8.106;2023-04-15T08:21:43;204.83;;;82.97;;
10633;SDS011;5365;51.640;8.106;2023-04-15T08:24:43;195.77;;;71.63;;
10633;SDS011;5365;51.640;8.106;2023-04-15T08:27:43;201.77;;;77.47;;
10633;SDS011;5365;51.640;8.106;2023-04-15T08:30:44;198.77;;;73.13;;
10633;SDS011;5365;51.640;8.106;2023-04-15T08:33:44;196.30;;;76.63;;
10633;SDS011;5365;51.640;8.106;2023-04-15T08:36:44;198.33;;;77.53;;
10633;SDS011;5365;51.640;8.106;2023-04-15T08:39:45;194.93;;;74.97;;
10633;SDS011;5365;51.640;8.106;2023-04-15T08:42:46;195.43;;;76.03;;
10633;SDS011;5365;51.640;8.106;2023-04-15T08:45:47;193.73;;;70.80;;
10633;SDS011;5365;51.640;8.106;2023-04-15T08:48:50;195.43;;;76.83;;
10633;SDS011;5365;51.640;8.106;2023-04-15T08:51:51;194.03;;;74.67;;
10633;SDS011;5365;51.640;8.106;2023-04-15T08:54:52;194.13;;;73.00;;
10633;SDS011;5365;51.640;8.106;2023-04-15T08:57:54;193.10;;;72.03;;
10633;SDS011;5365;51.640;8.106;2023-04-15T09:00:55;195.97;;;75.77;;
10633;SDS011;5365;51.640;8.106;2023-04-15T09:03:56;199.20;;;75.60;;
10633;SDS011;5365;51.640;8.106;2023-04-15T09:06:56;195.17;;;74.37;;
10633;SDS011;5365;51.640;8.106;2023-04-15T09:09:57;196.63;;;74.67;;
10633;SDS011;5365;51.640;8.106;2023-04-15T09:12:57;201.03;;;76.57;;
10633;SDS011;5365;51.640;8.106;2023-04-15T09:16:00;195.37;;;76.00;;
10633;SDS011;5365;51.640;8.106;2023-04-15T09:19:00;195.40;;;75.03;;
10633;SDS011;5365;51.640;8.106;2023-04-15T09:22:19;201.83;;;73.00;;
10633;SDS011;5365;51.640;8.106;2023-04-15T09:28:29;197.47;;;74.50;;
10633;SDS011;5365;51.640;8.106;2023-04-15T09:31:29;203.73;;;81.22;;
10633;SDS011;5365;51.640;8.106;2023-04-15T09:34:36;205.33;;;81.40;;
10633;SDS011;5365;51.640;8.106;2023-04-15T09:37:37;205.77;;;80.90;;
10633;SDS011;5365;51.640;8.106;2023-04-15T09:40:38;206.00;;;79.20;;
10633;SDS011;5365;51.640;8.106;2023-04-15T09:43:38;204.07;;;83.23;;
10633;SDS011;5365;51.640;8.106;2023-04-15T09:46:39;199.50;;;78.93;;
10633;SDS011;5365;51.640;8.106;2023-04-15T09:49:50;203.03;;;76.17;;
10633;SDS011;5365;51.640;8.106;2023-04-15T09:52:54;197.87;;;82.27;;
10633;SDS011;5365;51.640;8.106;2023-04-15T09:55:55;196.63;;;80.40;;
10633;SDS011;5365;51.640;8.106;2023-04-15T09:58:56;194.57;;;78.23;;
10633;SDS011;5365;51.640;8.106;2023-04-15T10:01:56;193.73;;;78.03;;
10633;SDS011;5365;51.640;8.106;2023-04-15T10:04:56;196.17;;;77.27;;
10633;SDS011;5365;51.640;8.106;2023-04-15T10:07:57;198.50;;;80.43;;
10633;SDS011;5365;51.640;8.106;2023-04-15T10:10:57;198.43;;;81.53;;
10633;SDS011;5365;51.640;8.106;2023-04-15T10:13:57;197.43;;;73.63;;
10633;SDS011;5365;51.640;8.106;2023-04-15T10:16:58;193.93;;;77.63;;
10633;SDS011;5365;51.640;8.106;2023-04-15T10:20:00;195.60;;;77.90;;
10633;SDS011;5365;51.640;8.106;2023-04-15T10:23:01;192.23;;;74.57;;
10633;SDS011;5365;51.640;8.106;2023-04-15T10:26:03;192.77;;;77.60;;
10633;SDS011;5365;51.640;8.106;2023-04-15T10:29:03;188.60;;;71.67;;
10633;SDS011;5365;51.640;8.106;2023-04-15T10:32:04;191.53;;;78.33;;
10633;SDS011;5365;51.640;8.106;2023-04-15T10:35:04;187.77;;;70.30;;
10633;SDS011;5365;51.640;8.106;2023-04-15T10:41:24;193.77;;;77.43;;
10633;SDS011;5365;51.640;8.106;2023-04-15T10:44:25;190.17;;;75.23;;
10633;SDS011;5365;51.640;8.106;2023-04-15T10:47:26;185.57;;;70.23;;
10633;SDS011;5365;51.640;8.106;2023-04-15T10:50:27;188.63;;;73.33;;
10633;SDS011;5365;51.640;8.106;2023-04-15T10:53:28;187.80;;;69.30;;
10633;SDS011;5365;51.640;8.106;2023-04-15T10:56:29;189.40;;;71.33;;
10633;SDS011;5365;51.640;8.106;2023-04-15T10:59:31;188.20;;;70.67;;
10633;SDS011;5365;51.640;8.106;2023-04-15T11:08:56;188.30;;;71.57;;
10633;SDS011;5365;51.640;8.106;2023-04-15T11:18:26;187.70;;;70.53;;
10633;SDS011;5365;51.640;8.106;2023-04-15T11:21:27;190.67;;;76.47;;
10633;SDS011;5365;51.640;8.106;2023-04-15T11:24:28;187.73;;;72.90;;
10633;SDS011;5365;51.640;8.106;2023-04-15T11:27:29;186.70;;;72.07;;
10633;SDS011;5365;51.640;8.106;2023-04-15T11:30:30;188.10;;;75.60;;
10633;SDS011;5365;51.640;8.106;2023-04-15T11:33:31;184.97;;;68.83;;
10633;SDS011;5365;51.640;8.106;2023-04-15T11:36:31;189.80;;;79.80;;
10633;SDS011;5365;51.640;8.106;2023-04-15T11:39:32;184.03;;;69.80;;
10633;SDS011;5365;51.640;8.106;2023-04-15T11:42:32;188.30;;;79.80;;
10633;SDS011;5365;51.640;8.106;2023-04-15T11:45:32;186.53;;;73.33;;
10633;SDS011;5365;51.640;8.106;2023-04-15T11:48:34;185.70;;;74.13;;
10633;SDS011;5365;51.640;8.106;2023-04-15T11:51:35;186.97;;;71.67;;
10633;SDS011;5365;51.640;8.106;2023-04-15T11:54:35;183.00;;;72.27;;
10633;SDS011;5365;51.640;8.106;2023-04-15T11:57:36;188.13;;;73.77;;
10633;SDS011;5365;51.640;8.106;2023-04-15T12:00:37;182.23;;;68.73;;
10633;SDS011;5365;51.640;8.106;2023-04-15T12:03:39;185.53;;;73.03;;
10633;SDS011;5365;51.640;8.106;2023-04-15T12:06:41;184.17;;;70.77;;
10633;SDS011;5365;51.640;8.106;2023-04-15T12:09:41;184.07;;;74.60;;
10633;SDS011;5365;51.640;8.106;2023-04-15T12:12:42;184.80;;;75.40;;
10633;SDS011;5365;51.640;8.106;2023-04-15T12:15:42;184.23;;;71.70;;
10633;SDS011;5365;51.640;8.106;2023-04-15T12:18:44;184.23;;;69.07;;
10633;SDS011;5365;51.640;8.106;2023-04-15T12:21:45;182.67;;;70.93;;
10633;SDS011;5365;51.640;8.106;2023-04-15T12:24:45;185.10;;;72.67;;
10633;SDS011;5365;51.640;8.106;2023-04-15T12:27:50;186.67;;;79.80;;
10633;SDS011;5365;51.640;8.106;2023-04-15T12:30:51;184.40;;;76.17;;
10633;SDS011;5365;51.640;8.106;2023-04-15T12:33:55;182.77;;;73.57;;
10633;SDS011;5365;51.640;8.106;2023-04-15T12:36:56;185.53;;;75.27;;
10633;SDS011;5365;51.640;8.106;2023-04-15T12:39:57;180.20;;;69.53;;
10633;SDS011;5365;51.640;8.106;2023-04-15T12:42:57;186.80;;;69.77;;
10633;SDS011;5365;51.640;8.106;2023-04-15T12:45:58;184.98;;;71.88;;
10633;SDS011;5365;51.640;8.106;2023-04-15T12:48:58;180.70;;;68.60;;
10633;SDS011;5365;51.640;8.106;2023-04-15T12:51:59;182.47;;;69.70;;
10633;SDS011;5365;51.640;8.106;2023-04-15T12:55:00;181.67;;;66.67;;
10633;SDS011;5365;51.640;8.106;2023-04-15T12:58:00;182.93;;;66.17;;
10633;SDS011;5365;51.640;8.106;2023-04-15T13:01:01;183.70;;;71.50;;
10633;SDS011;5365;51.640;8.106;2023-04-15T13:04:01;180.43;;;72.07;;
10633;SDS011;5365;51.640;8.106;2023-04-15T13:07:01;185.23;;;69.23;;
10633;SDS011;5365;51.640;8.106;2023-04-15T13:10:01;181.83;;;68.60;;
10633;SDS011;5365;51.640;8.106;2023-04-15T13:13:01;181.27;;;66.77;;
10633;SDS011;5365;51.640;8.106;2023-04-15T13:16:02;185.83;;;72.43;;
10633;SDS011;5365;51.640;8.106;2023-04-15T13:19:02;182.03;;;71.27;;
10633;SDS011;5365;51.640;8.106;2023-04-15T13:22:03;184.33;;;73.00;;
10633;SDS011;5365;51.640;8.106;2023-04-15T13:25:03;183.93;;;73.70;;
10633;SDS011;5365;51.640;8.106;2023-04-15T13:28:03;182.87;;;71.47;;
10633;SDS011;5365;51.640;8.106;2023-04-15T13:31:04;184.73;;;74.80;;
10633;SDS011;5365;51.640;8.106;2023-04-15T13:34:04;183.40;;;73.43;;
10633;SDS011;5365;51.640;8.106;2023-04-15T13:37:05;182.43;;;71.10;;
10633;SDS011;5365;51.640;8.106;2023-04-15T13:40:06;184.43;;;76.37;;
10633;SDS011;5365;51.640;8.106;2023-04-15T13:43:06;179.40;;;72.13;;
10633;SDS011;5365;51.640;8.106;2023-04-15T13:46:07;182.30;;;73.33;;
10633;SDS011;5365;51.640;8.106;2023-04-15T13:49:07;183.50;;;74.13;;
10633;SDS011;5365;51.640;8.106;2023-04-15T13:52:07;184.23;;;77.67;;
10633;SDS011;5365;51.640;8.106;2023-04-15T13:55:07;183.97;;;72.83;;
10633;SDS011;5365;51.640;8.106;2023-04-15T13:58:08;183.60;;;72.27;;
10633;SDS011;5365;51.640;8.106;2023-04-15T14:01:09;185.47;;;74.00;;
10633;SDS011;5365;51.640;8.106;2023-04-15T14:04:09;183.47;;;72.73;;
10633;SDS011;5365;51.640;8.106;2023-04-15T14:07:09;187.57;;;78.60;;
10633;SDS011;5365;51.640;8.106;2023-04-15T14:10:09;184.60;;;72.43;;
10633;SDS011;5365;51.640;8.106;2023-04-15T14:13:09;181.43;;;72.30;;
10633;SDS011;5365;51.640;8.106;2023-04-15T14:16:10;181.80;;;70.90;;
10633;SDS011;5365;51.640;8.106;2023-04-15T14:19:10;183.73;;;72.60;;
10633;SDS011;5365;51.640;8.106;2023-04-15T14:22:10;184.20;;;72.37;;
10633;SDS011;5365;51.640;8.106;2023-04-15T14:25:10;186.53;;;76.30;;
10633;SDS011;5365;51.640;8.106;2023-04-15T14:28:11;184.27;;;74.97;;
10633;SDS011;5365;51.640;8.106;2023-04-15T14:31:11;186.20;;;76.07;;
10633;SDS011;5365;51.640;8.106;2023-04-15T14:34:11;183.03;;;74.27;;
10633;SDS011;5365;51.640;8.106;2023-04-15T14:37:11;184.27;;;74.10;;
10633;SDS011;5365;51.640;8.106;2023-04-15T14:40:11;184.63;;;75.87;;
10633;SDS011;5365;51.640;8.106;2023-04-15T14:43:12;185.57;;;72.47;;
10633;SDS011;5365;51.640;8.106;2023-04-15T14:46:12;184.20;;;72.97;;
10633;SDS011;5365;51.640;8.106;2023-04-15T14:49:13;183.27;;;70.93;;
10633;SDS011;5365;51.640;8.106;2023-04-15T14:52:13;184.03;;;76.03;;
10633;SDS011;5365;51.640;8.106;2023-04-15T14:55:13;183.67;;;73.60;;
10633;SDS011;5365;51.640;8.106;2023-04-15T14:58:14;183.00;;;73.60;;
10633;SDS011;5365;51.640;8.106;2023-04-15T15:01:14;188.23;;;78.17;;
10633;SDS011;5365;51.640;8.106;2023-04-15T15:04:14;186.57;;;72.27;;
10633;SDS011;5365;51.640;8.106;2023-04-15T15:07:14;182.20;;;70.53;;
10633;SDS011;5365;51.640;8.106;2023-04-15T15:10:15;185.07;;;74.97;;
10633;SDS011;5365;51.640;8.106;2023-04-15T15:13:15;181.60;;;68.87;;
10633;SDS011;5365;51.640;8.106;2023-04-15T15:16:16;183.83;;;72.50;;
10633;SDS011;5365;51.640;8.106;2023-04-15T15:19:16;184.07;;;75.10;;
10633;SDS011;5365;51.640;8.106;2023-04-15T15:22:16;187.77;;;75.83;;
10633;SDS011;5365;51.640;8.106;2023-04-15T15:25:16;187.23;;;77.13;;
10633;SDS011;5365;51.640;8.106;2023-04-15T15:28:17;187.03;;;76.97;;
10633;SDS011;5365;51.640;8.106;2023-04-15T15:31:17;187.23;;;76.80;;
10633;SDS011;5365;51.640;8.106;2023-04-15T15:34:17;186.80;;;72.30;;
10633;SDS011;5365;51.640;8.106;2023-04-15T15:37:17;185.80;;;69.77;;
10633;SDS011;5365;51.640;8.106;2023-04-15T15:40:21;185.63;;;72.63;;
10633;SDS011;5365;51.640;8.106;2023-04-15T15:43:21;184.63;;;73.27;;
10633;SDS011;5365;51.640;8.106;2023-04-15T15:46:21;185.63;;;69.80;;
10633;SDS011;5365;51.640;8.106;2023-04-15T15:49:23;184.27;;;66.67;;
10633;SDS011;5365;51.640;8.106;2023-04-15T15:52:24;185.67;;;74.43;;
10633;SDS011;5365;51.640;8.106;2023-04-15T15:55:25;187.63;;;73.27;;
10633;SDS011;5365;51.640;8.106;2023-04-15T15:58:26;184.33;;;72.40;;
10633;SDS011;5365;51.640;8.106;2023-04-15T16:01:26;187.27;;;71.37;;
10633;SDS011;5365;51.640;8.106;2023-04-15T16:04:26;187.80;;;78.10;;
10633;SDS011;5365;51.640;8.106;2023-04-15T16:07:26;185.63;;;74.07;;
10633;SDS011;5365;51.640;8.106;2023-04-15T16:10:28;184.53;;;71.90;;
10633;SDS011;5365;51.640;8.106;2023-04-15T16:13:28;187.57;;;73.83;;
10633;SDS011;5365;51.640;8.106;2023-04-15T16:16:28;183.43;;;68.17;;
10633;SDS011;5365;51.640;8.106;2023-04-15T16:19:29;186.73;;;71.30;;
10633;SDS011;5365;51.640;8.106;2023-04-15T16:22:30;186.47;;;73.77;;
10633;SDS011;5365;51.640;8.106;2023-04-15T16:25:30;188.57;;;76.63;;
10633;SDS011;5365;51.640;8.106;2023-04-15T16:28:31;182.83;;;70.27;;
10633;SDS011;5365;51.640;8.106;2023-04-15T16:31:31;184.90;;;70.43;;
10633;SDS011;5365;51.640;8.106;2023-04-15T16:34:31;187.30;;;74.00;;
10633;SDS011;5365;51.640;8.106;2023-04-15T16:37:31;189.37;;;75.80;;
10633;SDS011;5365;51.640;8.106;2023-04-15T16:40:32;188.30;;;73.73;;
10633;SDS011;5365;51.640;8.106;2023-04-15T16:43:32;187.30;;;72.63;;
10633;SDS011;5365;51.640;8.106;2023-04-15T16:46:32;188.73;;;73.93;;
10633;SDS011;5365;51.640;8.106;2023-04-15T16:49:32;186.50;;;76.23;;
10633;SDS011;5365;51.640;8.106;2023-04-15T16:52:34;188.03;;;73.73;;
10633;SDS011;5365;51.640;8.106;2023-04-15T16:55:34;188.97;;;74.43;;
10633;SDS011;5365;51.640;8.106;2023-04-15T16:58:35;190.97;;;78.03;;
10633;SDS011;5365;51.640;8.106;2023-04-15T17:01:35;186.97;;;75.60;;
10633;SDS011;5365;51.640;8.106;2023-04-15T17:04:35;189.53;;;77.83;;
10633;SDS011;5365;51.640;8.106;2023-04-15T17:07:35;188.00;;;74.10;;
10633;SDS011;5365;51.640;8.106;2023-04-15T17:10:36;186.30;;;74.23;;
10633;SDS011;5365;51.640;8.106;2023-04-15T17:13:36;187.90;;;74.97;;
10633;SDS011;5365;51.640;8.106;2023-04-15T17:16:36;189.87;;;78.80;;
10633;SDS011;5365;51.640;8.106;2023-04-15T17:19:36;188.87;;;77.80;;
10633;SDS011;5365;51.640;8.106;2023-04-15T17:22:37;190.63;;;77.20;;
10633;SDS011;5365;51.640;8.106;2023-04-15T17:25:37;184.20;;;70.97;;
10633;SDS011;5365;51.640;8.106;2023-04-15T17:28:37;188.63;;;78.73;;
10633;SDS011;5365;51.640;8.106;2023-04-15T17:31:38;184.90;;;69.77;;
10633;SDS011;5365;51.640;8.106;2023-04-15T17:34:38;187.47;;;68.73;;
10633;SDS011;5365;51.640;8.106;2023-04-15T17:37:38;197.10;;;74.17;;
10633;SDS011;5365;51.640;8.106;2023-04-15T17:40:38;190.23;;;73.30;;
10633;SDS011;5365;51.640;8.106;2023-04-15T17:43:38;186.37;;;70.77;;
10633;SDS011;5365;51.640;8.106;2023-04-15T17:46:39;183.93;;;71.03;;
10633;SDS011;5365;51.640;8.106;2023-04-15T17:49:39;191.40;;;74.17;;
10633;SDS011;5365;51.640;8.106;2023-04-15T17:52:40;185.03;;;73.77;;
10633;SDS011;5365;51.640;8.106;2023-04-15T17:55:40;192.47;;;75.00;;